createdAt,value
2023-03-27T00:00:56.622Z,1006.38
2023-03-27T00:01:56.401Z,1006.42
2023-03-27T00:02:56.591Z,1006.41
2023-03-27T00:03:56.339Z,1006.45
2023-03-27T00:04:56.287Z,1006.42
2023-03-27T00:05:56.256Z,1006.48
2023-03-27T00:06:56.233Z,1006.49
2023-03-27T00:07:56.202Z,1006.52
2023-03-27T00:08:56.191Z,1006.49
2023-03-27T00:09:56.144Z,1006.57
2023-03-27T00:10:56.307Z,1006.58
2023-03-27T00:11:56.128Z,1006.56
2023-03-27T00:12:56.072Z,1006.65
2023-03-27T00:13:56.056Z,1006.62
2023-03-27T00:14:56.019Z,1006.65
2023-03-27T00:15:55.993Z,1006.72
2023-03-27T00:16:55.989Z,1006.76
2023-03-27T00:17:55.984Z,1006.72
2023-03-27T00:18:55.972Z,1006.68
2023-03-27T00:19:55.878Z,1006.74
2023-03-27T00:20:56.169Z,1006.72
2023-03-27T00:21:55.815Z,1006.75
2023-03-27T00:22:55.792Z,1006.76
2023-03-27T00:23:55.764Z,1006.82
2023-03-27T00:24:55.733Z,1006.78
2023-03-27T00:25:55.714Z,1006.79
2023-03-27T00:26:55.685Z,1006.80
2023-03-27T00:27:55.656Z,1006.84
2023-03-27T00:28:55.630Z,1006.85
2023-03-27T00:29:55.602Z,1006.90
2023-03-27T00:30:55.833Z,1006.90
2023-03-27T00:31:55.549Z,1006.95
2023-03-27T00:32:55.552Z,1006.95
2023-03-27T00:33:55.489Z,1006.95
2023-03-27T00:34:55.488Z,1007.03
2023-03-27T00:35:55.495Z,1007.03
2023-03-27T00:36:55.408Z,1007.08
2023-03-27T00:37:55.374Z,1007.08
2023-03-27T00:38:55.380Z,1007.10
2023-03-27T00:39:55.321Z,1007.13
2023-03-27T00:40:55.552Z,1007.14
2023-03-27T00:41:55.264Z,1007.13
2023-03-27T00:42:55.241Z,1007.15
2023-03-27T00:43:55.211Z,1007.15
2023-03-27T00:44:55.192Z,1007.11
2023-03-27T00:45:55.228Z,1007.11
2023-03-27T00:46:55.147Z,1007.10
2023-03-27T00:47:55.149Z,1007.10
2023-03-27T00:48:55.075Z,1007.17
2023-03-27T00:49:55.049Z,1007.14
2023-03-27T00:50:55.261Z,1007.14
2023-03-27T00:51:54.995Z,1007.16
2023-03-27T00:52:54.973Z,1007.18
2023-03-27T00:53:54.940Z,1007.23
2023-03-27T00:54:54.916Z,1007.22
2023-03-27T00:55:54.880Z,1007.25
2023-03-27T00:56:54.898Z,1007.29
2023-03-27T00:57:54.825Z,1007.32
2023-03-27T00:58:54.798Z,1007.30
2023-03-27T00:59:54.773Z,1007.33
2023-03-27T01:00:55.023Z,1007.33
2023-03-27T01:01:54.773Z,1007.38
2023-03-27T01:02:54.800Z,1007.39
2023-03-27T01:03:54.731Z,1007.37
2023-03-27T01:04:54.628Z,1007.37
2023-03-27T01:05:54.606Z,1007.38
2023-03-27T01:06:54.600Z,1007.40
2023-03-27T01:08:00.553Z,1007.41
2023-03-27T01:08:54.521Z,1007.39
2023-03-27T01:09:54.486Z,1007.37
2023-03-27T01:10:54.813Z,1007.39
2023-03-27T01:11:54.436Z,1007.40
2023-03-27T01:12:54.407Z,1007.35
2023-03-27T01:13:54.379Z,1007.37
2023-03-27T01:14:54.353Z,1007.35
2023-03-27T01:15:54.356Z,1007.40
2023-03-27T01:16:54.304Z,1007.43
2023-03-27T01:17:54.303Z,1007.42
2023-03-27T01:18:54.251Z,1007.42
2023-03-27T01:19:54.215Z,1007.40
2023-03-27T01:20:54.274Z,1007.41
2023-03-27T01:21:54.158Z,1007.43
2023-03-27T01:22:54.150Z,1007.43
2023-03-27T01:23:59.669Z,1007.44
2023-03-27T01:24:54.074Z,1007.51
2023-03-27T01:25:54.048Z,1007.55
2023-03-27T01:26:54.018Z,1007.55
2023-03-27T01:27:54.000Z,1007.56
2023-03-27T01:28:53.960Z,1007.57
2023-03-27T01:29:53.945Z,1007.56
2023-03-27T01:30:54.099Z,1007.58
2023-03-27T01:31:53.942Z,1007.58
2023-03-27T01:32:53.872Z,1007.59
2023-03-27T01:33:53.829Z,1007.64
2023-03-27T01:35:01.534Z,1007.67
2023-03-27T01:35:53.806Z,1007.64
2023-03-27T01:36:53.738Z,1007.73
2023-03-27T01:37:53.716Z,1007.70
2023-03-27T01:38:53.707Z,1007.72
2023-03-27T01:39:53.678Z,1007.76
2023-03-27T01:40:53.712Z,1007.76
2023-03-27T01:41:53.608Z,1007.76
2023-03-27T01:42:53.583Z,1007.77
2023-03-27T01:43:53.551Z,1007.79
2023-03-27T01:44:53.521Z,1007.80
2023-03-27T01:45:53.498Z,1007.81
2023-03-27T01:46:53.517Z,1007.76
2023-03-27T01:47:53.463Z,1007.76
2023-03-27T01:48:53.413Z,1007.77
2023-03-27T01:49:53.389Z,1007.83
2023-03-27T01:50:53.358Z,1007.81
2023-03-27T01:51:53.328Z,1007.83
2023-03-27T01:52:53.305Z,1007.81
2023-03-27T01:53:53.278Z,1007.80
2023-03-27T01:54:53.328Z,1007.80
2023-03-27T01:55:53.240Z,1007.82
2023-03-27T01:56:53.242Z,1007.78
2023-03-27T01:57:53.175Z,1007.79
2023-03-27T01:58:53.175Z,1007.76
2023-03-27T01:59:53.109Z,1007.80
2023-03-27T02:00:53.584Z,1007.83
2023-03-27T02:01:53.058Z,1007.90
2023-03-27T02:02:53.117Z,1007.91
2023-03-27T02:03:53.001Z,1007.90
2023-03-27T02:04:53.030Z,1007.91
2023-03-27T02:05:52.958Z,1007.93
2023-03-27T02:06:52.919Z,1007.90
2023-03-27T02:07:52.889Z,1007.93
2023-03-27T02:08:52.860Z,1007.96
2023-03-27T02:09:52.830Z,1007.98
2023-03-27T02:10:52.823Z,1007.95
2023-03-27T02:11:52.779Z,1007.98
2023-03-27T02:12:52.749Z,1008.01
2023-03-27T02:13:52.726Z,1008.02
2023-03-27T02:14:52.695Z,1008.06
2023-03-27T02:15:52.666Z,1008.10
2023-03-27T02:16:52.637Z,1008.12
2023-03-27T02:17:52.682Z,1008.14
2023-03-27T02:18:52.590Z,1008.16
2023-03-27T02:19:52.590Z,1008.22
2023-03-27T02:20:52.563Z,1008.23
2023-03-27T02:21:52.545Z,1008.21
2023-03-27T02:22:52.473Z,1008.25
2023-03-27T02:23:52.450Z,1008.26
2023-03-27T02:24:52.416Z,1008.23
2023-03-27T02:25:52.388Z,1008.21
2023-03-27T02:26:52.382Z,1008.25
2023-03-27T02:27:52.346Z,1008.24
2023-03-27T02:28:52.308Z,1008.25
2023-03-27T02:29:52.287Z,1008.28
2023-03-27T02:31:06.290Z,1008.28
2023-03-27T02:31:52.252Z,1008.30
2023-03-27T02:32:52.220Z,1008.31
2023-03-27T02:33:52.172Z,1008.32
2023-03-27T02:34:52.142Z,1008.33
2023-03-27T02:35:52.167Z,1008.34
2023-03-27T02:36:52.085Z,1008.34
2023-03-27T02:37:52.065Z,1008.34
2023-03-27T02:38:52.033Z,1008.35
2023-03-27T02:39:52.004Z,1008.38
2023-03-27T02:40:51.976Z,1008.38
2023-03-27T02:41:51.950Z,1008.41
2023-03-27T02:42:51.940Z,1008.40
2023-03-27T02:43:51.897Z,1008.44
2023-03-27T02:44:51.910Z,1008.46
2023-03-27T02:45:51.895Z,1008.49
2023-03-27T02:46:51.806Z,1008.49
2023-03-27T02:47:51.825Z,1008.52
2023-03-27T02:48:51.759Z,1008.53
2023-03-27T02:49:51.726Z,1008.50
2023-03-27T02:50:51.704Z,1008.54
2023-03-27T02:51:51.671Z,1008.53
2023-03-27T02:52:51.647Z,1008.55
2023-03-27T02:53:51.618Z,1008.54
2023-03-27T02:54:51.596Z,1008.56
2023-03-27T02:55:51.569Z,1008.58
2023-03-27T02:56:51.575Z,1008.57
2023-03-27T02:57:52.770Z,1008.60
2023-03-27T02:58:51.498Z,1008.64
2023-03-27T02:59:51.463Z,1008.66
2023-03-27T03:00:51.456Z,1008.63
2023-03-27T03:01:51.399Z,1008.66
2023-03-27T03:02:51.428Z,1008.66
2023-03-27T03:03:51.343Z,1008.68
2023-03-27T03:04:51.315Z,1008.69
2023-03-27T03:05:51.294Z,1008.69
2023-03-27T03:06:51.258Z,1008.72
2023-03-27T03:07:51.269Z,1008.75
2023-03-27T03:08:51.205Z,1008.79
2023-03-27T03:09:51.180Z,1008.76
2023-03-27T03:10:51.152Z,1008.81
2023-03-27T03:11:51.133Z,1008.83
2023-03-27T03:12:51.096Z,1008.83
2023-03-27T03:13:51.072Z,1008.85
2023-03-27T03:14:51.055Z,1008.88
2023-03-27T03:15:51.012Z,1008.94
2023-03-27T03:16:51.019Z,1008.96
2023-03-27T03:17:51.032Z,1008.99
2023-03-27T03:18:50.941Z,1008.94
2023-03-27T03:19:50.899Z,1008.95
2023-03-27T03:20:50.866Z,1008.94
2023-03-27T03:21:50.843Z,1008.93
2023-03-27T03:22:50.811Z,1008.89
2023-03-27T03:23:57.972Z,1008.95
2023-03-27T03:24:50.757Z,1008.95
2023-03-27T03:25:50.731Z,1008.97
2023-03-27T03:26:50.705Z,1008.97
2023-03-27T03:27:50.682Z,1008.99
2023-03-27T03:28:59.801Z,1009.05
2023-03-27T03:29:50.626Z,1009.03
2023-03-27T03:30:50.649Z,1009.03
2023-03-27T03:32:23.796Z,1009.04
2023-03-27T03:32:50.592Z,1009.03
2023-03-27T03:33:50.505Z,1009.07
2023-03-27T03:34:50.508Z,1009.12
2023-03-27T03:35:50.516Z,1009.10
2023-03-27T03:36:50.471Z,1009.15
2023-03-27T03:37:50.958Z,1009.14
2023-03-27T03:38:50.371Z,1009.16
2023-03-27T03:39:50.354Z,1009.17
2023-03-27T03:40:50.321Z,1009.18
2023-03-27T03:41:50.287Z,1009.17
2023-03-27T03:42:50.260Z,1009.19
2023-03-27T03:43:50.228Z,1009.23
2023-03-27T03:44:50.202Z,1009.23
2023-03-27T03:45:50.278Z,1009.26
2023-03-27T03:46:50.195Z,1009.24
2023-03-27T03:47:50.178Z,1009.30
2023-03-27T03:48:50.096Z,1009.29
2023-03-27T03:49:50.065Z,1009.28
2023-03-27T03:50:50.032Z,1009.32
2023-03-27T03:52:03.574Z,1009.34
2023-03-27T03:52:49.981Z,1009.35
2023-03-27T03:53:49.947Z,1009.35
2023-03-27T03:54:49.930Z,1009.39
2023-03-27T03:55:49.895Z,1009.36
2023-03-27T03:56:49.878Z,1009.38
2023-03-27T03:57:49.834Z,1009.43
2023-03-27T03:58:49.819Z,1009.44
2023-03-27T03:59:49.789Z,1009.45
2023-03-27T04:00:49.754Z,1009.44
2023-03-27T04:01:49.745Z,1009.45
2023-03-27T04:02:49.819Z,1009.46
2023-03-27T04:03:49.757Z,1009.45
2023-03-27T04:04:49.642Z,1009.47
2023-03-27T04:05:49.611Z,1009.50
2023-03-27T04:06:49.591Z,1009.52
2023-03-27T04:07:49.555Z,1009.53
2023-03-27T04:08:49.536Z,1009.55
2023-03-27T04:09:49.501Z,1009.57
2023-03-27T04:10:49.475Z,1009.60
2023-03-27T04:11:49.448Z,1009.57
2023-03-27T04:12:49.422Z,1009.58
2023-03-27T04:13:49.388Z,1009.57
2023-03-27T04:14:49.365Z,1009.58
2023-03-27T04:15:49.412Z,1009.62
2023-03-27T04:16:49.303Z,1009.64
2023-03-27T04:17:49.365Z,1009.62
2023-03-27T04:18:49.386Z,1009.66
2023-03-27T04:19:49.217Z,1009.67
2023-03-27T04:20:49.200Z,1009.65
2023-03-27T04:21:49.165Z,1009.64
2023-03-27T04:22:49.141Z,1009.68
2023-03-27T04:23:49.109Z,1009.72
2023-03-27T04:24:49.085Z,1009.74
2023-03-27T04:25:49.120Z,1009.75
2023-03-27T04:26:49.032Z,1009.70
2023-03-27T04:27:49.006Z,1009.74
2023-03-27T04:28:48.972Z,1009.73
2023-03-27T04:29:48.950Z,1009.77
2023-03-27T04:30:48.921Z,1009.79
2023-03-27T04:31:48.965Z,1009.79
2023-03-27T04:32:48.957Z,1009.83
2023-03-27T04:33:48.833Z,1009.86
2023-03-27T04:34:48.843Z,1009.84
2023-03-27T04:36:07.232Z,1009.81
2023-03-27T04:36:48.759Z,1009.86
2023-03-27T04:37:48.724Z,1009.89
2023-03-27T04:38:48.699Z,1009.85
2023-03-27T04:39:48.663Z,1009.90
2023-03-27T04:40:48.638Z,1009.93
2023-03-27T04:41:48.626Z,1009.90
2023-03-27T04:42:48.586Z,1009.92
2023-03-27T04:43:48.562Z,1009.91
2023-03-27T04:44:48.528Z,1009.90
2023-03-27T04:45:48.504Z,1009.91
2023-03-27T04:46:48.500Z,1009.91
2023-03-27T04:47:48.482Z,1009.90
2023-03-27T04:48:48.418Z,1009.90
2023-03-27T04:49:48.392Z,1009.93
2023-03-27T04:50:48.387Z,1009.95
2023-03-27T04:51:48.335Z,1009.95
2023-03-27T04:52:50.280Z,1009.94
2023-03-27T04:53:48.294Z,1009.94
2023-03-27T04:54:48.283Z,1009.97
2023-03-27T04:55:48.227Z,1009.99
2023-03-27T04:56:48.251Z,1010.06
2023-03-27T04:57:48.186Z,1010.07
2023-03-27T04:58:48.146Z,1010.06
2023-03-27T04:59:48.111Z,1010.05
2023-03-27T05:00:48.141Z,1010.07
2023-03-27T05:01:48.145Z,1010.10
2023-03-27T05:02:48.188Z,1010.11
2023-03-27T05:03:48.020Z,1010.09
2023-03-27T05:04:47.976Z,1010.12
2023-03-27T05:05:47.940Z,1010.14
2023-03-27T05:06:47.937Z,1010.15
2023-03-27T05:07:47.891Z,1010.18
2023-03-27T05:08:47.866Z,1010.20
2023-03-27T05:09:47.838Z,1010.21
2023-03-27T05:10:47.809Z,1010.22
2023-03-27T05:11:47.773Z,1010.27
2023-03-27T05:12:47.742Z,1010.31
2023-03-27T05:13:47.711Z,1010.29
2023-03-27T05:14:47.692Z,1010.29
2023-03-27T05:15:47.668Z,1010.34
2023-03-27T05:16:47.670Z,1010.32
2023-03-27T05:17:47.694Z,1010.34
2023-03-27T05:18:47.577Z,1010.38
2023-03-27T05:19:47.544Z,1010.39
2023-03-27T05:20:47.521Z,1010.40
2023-03-27T05:21:47.501Z,1010.38
2023-03-27T05:22:47.501Z,1010.37
2023-03-27T05:23:47.435Z,1010.42
2023-03-27T05:24:47.406Z,1010.45
2023-03-27T05:26:00.313Z,1010.47
2023-03-27T05:26:47.358Z,1010.49
2023-03-27T05:27:47.318Z,1010.51
2023-03-27T05:28:47.301Z,1010.49
2023-03-27T05:29:47.791Z,1010.54
2023-03-27T05:30:47.326Z,1010.53
2023-03-27T05:31:47.210Z,1010.55
2023-03-27T05:32:47.214Z,1010.57
2023-03-27T05:33:47.150Z,1010.56
2023-03-27T05:34:47.129Z,1010.57
2023-03-27T05:35:47.196Z,1010.58
2023-03-27T05:36:47.099Z,1010.60
2023-03-27T05:37:47.044Z,1010.62
2023-03-27T05:38:47.037Z,1010.67
2023-03-27T05:39:46.995Z,1010.73
2023-03-27T05:40:46.963Z,1010.78
2023-03-27T05:41:46.929Z,1010.76
2023-03-27T05:42:46.913Z,1010.82
2023-03-27T05:43:47.138Z,1010.86
2023-03-27T05:44:46.845Z,1010.88
2023-03-27T05:45:46.829Z,1010.83
2023-03-27T05:46:46.792Z,1010.86
2023-03-27T05:47:46.828Z,1010.86
2023-03-27T05:48:46.730Z,1010.88
2023-03-27T05:49:46.710Z,1010.84
2023-03-27T05:50:46.688Z,1010.88
2023-03-27T05:51:47.023Z,1010.94
2023-03-27T05:52:46.639Z,1010.95
2023-03-27T05:53:46.613Z,1010.96
2023-03-27T05:54:46.585Z,1010.95
2023-03-27T05:55:46.545Z,1010.98
2023-03-27T05:56:46.568Z,1010.97
2023-03-27T05:57:46.494Z,1011.03
2023-03-27T05:58:46.452Z,1010.99
2023-03-27T05:59:46.431Z,1010.93
2023-03-27T06:00:46.405Z,1010.98
2023-03-27T06:01:46.364Z,1010.98
2023-03-27T06:02:46.424Z,1011.01
2023-03-27T06:03:46.446Z,1010.98
2023-03-27T06:04:46.308Z,1010.98
2023-03-27T06:05:46.267Z,1010.94
2023-03-27T06:06:46.226Z,1010.99
2023-03-27T06:07:46.210Z,1010.99
2023-03-27T06:08:46.219Z,1011.01
2023-03-27T06:09:46.141Z,1011.00
2023-03-27T06:10:46.145Z,1011.01
2023-03-27T06:11:46.101Z,1011.04
2023-03-27T06:12:48.252Z,1011.02
2023-03-27T06:13:46.034Z,1011.06
2023-03-27T06:14:46.006Z,1011.03
2023-03-27T06:15:45.983Z,1011.03
2023-03-27T06:16:45.941Z,1011.02
2023-03-27T06:17:45.940Z,1011.05
2023-03-27T06:18:45.897Z,1011.08
2023-03-27T06:19:45.880Z,1011.03
2023-03-27T06:20:45.840Z,1011.04
2023-03-27T06:21:45.813Z,1011.13
2023-03-27T06:22:45.786Z,1011.12
2023-03-27T06:23:45.766Z,1011.14
2023-03-27T06:24:45.739Z,1011.17
2023-03-27T06:25:45.697Z,1011.20
2023-03-27T06:26:45.690Z,1011.23
2023-03-27T06:27:45.647Z,1011.25
2023-03-27T06:28:45.608Z,1011.25
2023-03-27T06:29:45.593Z,1011.29
2023-03-27T06:30:45.566Z,1011.29
2023-03-27T06:31:45.569Z,1011.27
2023-03-27T06:32:45.573Z,1011.28
2023-03-27T06:33:45.472Z,1011.26
2023-03-27T06:34:45.440Z,1011.31
2023-03-27T06:35:53.008Z,1011.32
2023-03-27T06:36:45.387Z,1011.30
2023-03-27T06:37:45.362Z,1011.33
2023-03-27T06:38:45.329Z,1011.37
2023-03-27T06:39:45.314Z,1011.33
2023-03-27T06:40:45.278Z,1011.36
2023-03-27T06:41:45.247Z,1011.35
2023-03-27T06:42:45.237Z,1011.35
2023-03-27T06:43:45.191Z,1011.29
2023-03-27T06:44:45.194Z,1011.34
2023-03-27T06:45:45.142Z,1011.35
2023-03-27T06:46:45.978Z,1011.37
2023-03-27T06:47:53.696Z,1011.33
2023-03-27T06:48:45.133Z,1011.35
2023-03-27T06:49:45.030Z,1011.39
2023-03-27T06:50:44.990Z,1011.35
2023-03-27T06:51:44.967Z,1011.38
2023-03-27T06:52:44.937Z,1011.42
2023-03-27T06:53:44.920Z,1011.37
2023-03-27T06:54:44.878Z,1011.38
2023-03-27T06:55:44.866Z,1011.40
2023-03-27T06:56:44.839Z,1011.43
2023-03-27T06:57:44.810Z,1011.42
2023-03-27T06:58:44.796Z,1011.42
2023-03-27T06:59:44.745Z,1011.43
2023-03-27T07:00:44.715Z,1011.48
2023-03-27T07:01:44.718Z,1011.50
2023-03-27T07:02:44.679Z,1011.47
2023-03-27T07:03:44.633Z,1011.51
2023-03-27T07:04:54.223Z,1011.57
2023-03-27T07:05:44.597Z,1011.57
2023-03-27T07:06:44.542Z,1011.59
2023-03-27T07:07:44.524Z,1011.59
2023-03-27T07:08:45.469Z,1011.57
2023-03-27T07:09:44.919Z,1011.62
2023-03-27T07:10:44.637Z,1011.56
2023-03-27T07:11:44.406Z,1011.58
2023-03-27T07:12:44.370Z,1011.67
2023-03-27T07:13:44.353Z,1011.63
2023-03-27T07:14:44.338Z,1011.63
2023-03-27T07:15:44.297Z,1011.68
2023-03-27T07:16:44.284Z,1011.66
2023-03-27T07:17:49.108Z,1011.76
2023-03-27T07:18:44.196Z,1011.73
2023-03-27T07:19:44.178Z,1011.76
2023-03-27T07:20:44.142Z,1011.78
2023-03-27T07:21:44.127Z,1011.78
2023-03-27T07:22:44.088Z,1011.78
2023-03-27T07:23:44.066Z,1011.85
2023-03-27T07:24:44.035Z,1011.86
2023-03-27T07:25:44.007Z,1011.89
2023-03-27T07:26:43.977Z,1011.83
2023-03-27T07:27:43.954Z,1011.90
2023-03-27T07:28:43.919Z,1011.88
2023-03-27T07:29:43.895Z,1011.88
2023-03-27T07:30:43.906Z,1011.96
2023-03-27T07:31:57.644Z,1011.98
2023-03-27T07:32:44.146Z,1011.99
2023-03-27T07:33:43.909Z,1012.01
2023-03-27T07:34:43.755Z,1012.04
2023-03-27T07:35:43.792Z,1012.07
2023-03-27T07:36:43.702Z,1012.04
2023-03-27T07:37:43.669Z,1012.04
2023-03-27T07:38:43.654Z,1012.03
2023-03-27T07:39:43.623Z,1012.06
2023-03-27T07:40:43.614Z,1012.08
2023-03-27T07:41:43.573Z,1012.12
2023-03-27T07:42:43.537Z,1012.02
2023-03-27T07:43:43.513Z,1012.13
2023-03-27T07:44:43.493Z,1012.12
2023-03-27T07:45:43.499Z,1012.15
2023-03-27T07:46:43.462Z,1012.16
2023-03-27T07:47:43.451Z,1012.15
2023-03-27T07:48:43.364Z,1012.10
2023-03-27T07:49:43.350Z,1012.10
2023-03-27T07:50:43.317Z,1012.22
2023-03-27T07:51:43.305Z,1012.25
2023-03-27T07:52:43.254Z,1012.25
2023-03-27T07:53:43.230Z,1012.19
2023-03-27T07:54:43.213Z,1012.26
2023-03-27T07:55:43.199Z,1012.29
2023-03-27T07:56:43.172Z,1012.25
2023-03-27T07:57:58.134Z,1012.43
2023-03-27T07:58:43.113Z,1012.21
2023-03-27T07:59:43.065Z,1012.25
2023-03-27T08:00:43.040Z,1012.26
2023-03-27T08:01:43.013Z,1012.40
2023-03-27T08:02:43.016Z,1012.27
2023-03-27T08:03:42.998Z,1012.29
2023-03-27T08:04:42.989Z,1012.28
2023-03-27T08:05:42.907Z,1012.30
2023-03-27T08:06:42.863Z,1012.27
2023-03-27T08:07:42.841Z,1012.26
2023-03-27T08:08:42.810Z,1012.28
2023-03-27T08:09:42.781Z,1012.32
2023-03-27T08:10:42.762Z,1012.32
2023-03-27T08:11:42.727Z,1012.36
2023-03-27T08:12:42.703Z,1012.27
2023-03-27T08:13:42.678Z,1012.34
2023-03-27T08:14:42.643Z,1012.38
2023-03-27T08:15:42.622Z,1012.41
2023-03-27T08:16:42.623Z,1012.36
2023-03-27T08:17:42.641Z,1012.40
2023-03-27T08:18:42.558Z,1012.40
2023-03-27T08:19:42.507Z,1012.38
2023-03-27T08:20:42.501Z,1012.42
2023-03-27T08:21:42.452Z,1012.57
2023-03-27T08:22:42.418Z,1012.44
2023-03-27T08:23:42.403Z,1012.55
2023-03-27T08:24:42.364Z,1012.45
2023-03-27T08:25:42.344Z,1012.46
2023-03-27T08:26:42.312Z,1012.50
2023-03-27T08:27:42.288Z,1012.45
2023-03-27T08:28:42.258Z,1012.50
2023-03-27T08:29:42.246Z,1012.41
2023-03-27T08:30:42.263Z,1012.48
2023-03-27T08:31:42.186Z,1012.52
2023-03-27T08:32:42.197Z,1012.51
2023-03-27T08:33:42.122Z,1012.57
2023-03-27T08:34:42.110Z,1012.53
2023-03-27T08:35:42.135Z,1012.64
2023-03-27T08:36:42.059Z,1012.56
2023-03-27T08:37:42.008Z,1012.62
2023-03-27T08:38:41.984Z,1012.56
2023-03-27T08:39:41.956Z,1012.66
2023-03-27T08:40:41.954Z,1012.54
2023-03-27T08:41:41.896Z,1012.63
2023-03-27T08:42:41.869Z,1012.66
2023-03-27T08:43:41.849Z,1012.69
2023-03-27T08:44:41.817Z,1012.66
2023-03-27T08:45:41.785Z,1012.53
2023-03-27T08:46:41.807Z,1012.61
2023-03-27T08:47:41.845Z,1012.65
2023-03-27T08:48:41.823Z,1012.63
2023-03-27T08:49:41.689Z,1012.71
2023-03-27T08:50:41.682Z,1012.78
2023-03-27T08:51:41.624Z,1012.69
2023-03-27T08:52:41.597Z,1012.66
2023-03-27T08:53:41.576Z,1012.67
2023-03-27T08:54:41.539Z,1012.69
2023-03-27T08:55:41.608Z,1012.74
2023-03-27T08:56:41.509Z,1012.74
2023-03-27T08:57:41.465Z,1012.80
2023-03-27T08:58:41.439Z,1012.76
2023-03-27T08:59:41.408Z,1012.76
2023-03-27T09:00:41.386Z,1012.85
2023-03-27T09:01:41.471Z,1012.88
2023-03-27T09:02:41.364Z,1012.88
2023-03-27T09:03:41.413Z,1012.90
2023-03-27T09:04:41.271Z,1012.90
2023-03-27T09:05:41.241Z,1012.89
2023-03-27T09:06:41.230Z,1012.83
2023-03-27T09:07:41.189Z,1012.87
2023-03-27T09:08:41.157Z,1012.85
2023-03-27T09:09:41.136Z,1012.87
2023-03-27T09:10:41.111Z,1012.83
2023-03-27T09:11:41.113Z,1012.82
2023-03-27T09:12:41.057Z,1012.87
2023-03-27T09:13:41.030Z,1012.83
2023-03-27T09:14:40.996Z,1012.84
2023-03-27T09:15:41.015Z,1012.95
2023-03-27T09:16:40.994Z,1012.96
2023-03-27T09:17:40.969Z,1012.93
2023-03-27T09:18:40.888Z,1012.85
2023-03-27T09:19:40.857Z,1012.89
2023-03-27T09:20:40.840Z,1012.91
2023-03-27T09:21:40.804Z,1012.92
2023-03-27T09:22:40.821Z,1012.94
2023-03-27T09:23:40.754Z,1012.89
2023-03-27T09:24:40.724Z,1012.94
2023-03-27T09:25:40.696Z,1012.89
2023-03-27T09:26:40.666Z,1012.98
2023-03-27T09:27:40.643Z,1013.00
2023-03-27T09:28:40.606Z,1013.01
2023-03-27T09:29:40.596Z,1013.00
2023-03-27T09:30:40.552Z,1013.03
2023-03-27T09:31:40.575Z,1013.07
2023-03-27T09:32:40.542Z,1013.03
2023-03-27T09:33:40.479Z,1013.09
2023-03-27T09:34:40.444Z,1013.08
2023-03-27T09:35:40.457Z,1013.11
2023-03-27T09:36:40.403Z,1013.03
2023-03-27T09:37:40.382Z,1013.00
2023-03-27T09:38:40.376Z,1013.03
2023-03-27T09:39:40.318Z,1012.99
2023-03-27T09:40:40.286Z,1013.04
2023-03-27T09:41:40.281Z,1013.24
2023-03-27T09:42:40.240Z,1013.07
2023-03-27T09:43:40.204Z,1013.08
2023-03-27T09:44:40.177Z,1013.08
2023-03-27T09:45:40.154Z,1013.05
2023-03-27T09:46:40.172Z,1013.06
2023-03-27T09:47:40.168Z,1013.09
2023-03-27T09:48:40.090Z,1013.09
2023-03-27T09:49:40.050Z,1013.08
2023-03-27T09:50:40.013Z,1013.17
2023-03-27T09:51:39.986Z,1013.22
2023-03-27T09:52:39.958Z,1013.15
2023-03-27T09:53:39.931Z,1013.17
2023-03-27T09:54:39.932Z,1013.19
2023-03-27T09:55:39.877Z,1013.26
2023-03-27T09:56:39.867Z,1013.25
2023-03-27T09:57:39.827Z,1013.28
2023-03-27T09:58:39.791Z,1013.20
2023-03-27T09:59:39.780Z,1013.18
2023-03-27T10:00:39.751Z,1013.15
2023-03-27T10:01:39.712Z,1013.24
2023-03-27T10:02:39.728Z,1013.18
2023-03-27T10:03:39.708Z,1013.22
2023-03-27T10:04:39.634Z,1013.15
2023-03-27T10:05:39.634Z,1013.18
2023-03-27T10:06:39.580Z,1013.24
2023-03-27T10:07:39.560Z,1013.28
2023-03-27T10:08:39.536Z,1013.29
2023-03-27T10:09:39.500Z,1013.26
2023-03-27T10:10:39.493Z,1013.16
2023-03-27T10:11:39.442Z,1013.22
2023-03-27T10:12:39.421Z,1013.13
2023-03-27T10:13:39.412Z,1013.19
2023-03-27T10:14:39.374Z,1013.18
2023-03-27T10:15:39.364Z,1013.24
2023-03-27T10:16:39.365Z,1013.28
2023-03-27T10:17:39.370Z,1013.24
2023-03-27T10:18:39.258Z,1013.26
2023-03-27T10:19:39.226Z,1013.27
2023-03-27T10:20:39.206Z,1013.22
2023-03-27T10:21:39.186Z,1013.29
2023-03-27T10:22:39.153Z,1013.32
2023-03-27T10:23:39.171Z,1013.34
2023-03-27T10:24:44.407Z,1013.28
2023-03-27T10:25:39.068Z,1013.25
2023-03-27T10:26:39.066Z,1013.26
2023-03-27T10:27:39.017Z,1013.27
2023-03-27T10:28:39.011Z,1013.29
2023-03-27T10:29:41.097Z,1013.30
2023-03-27T10:30:38.937Z,1013.28
2023-03-27T10:31:38.917Z,1013.41
2023-03-27T10:32:38.895Z,1013.30
2023-03-27T10:33:38.853Z,1013.38
2023-03-27T10:34:38.835Z,1013.33
2023-03-27T10:35:38.808Z,1013.30
2023-03-27T10:36:38.778Z,1013.43
2023-03-27T10:37:38.746Z,1013.37
2023-03-27T10:38:38.726Z,1013.31
2023-03-27T10:39:38.695Z,1013.31
2023-03-27T10:40:38.681Z,1013.37
2023-03-27T10:41:38.641Z,1013.28
2023-03-27T10:42:38.641Z,1013.31
2023-03-27T10:43:38.593Z,1013.26
2023-03-27T10:44:38.565Z,1013.38
2023-03-27T10:45:38.562Z,1013.38
2023-03-27T10:46:38.509Z,1013.43
2023-03-27T10:47:38.508Z,1013.40
2023-03-27T10:48:38.455Z,1013.28
2023-03-27T10:49:38.422Z,1013.36
2023-03-27T10:50:38.410Z,1013.24
2023-03-27T10:51:46.188Z,1013.25
2023-03-27T10:52:38.354Z,1013.37
2023-03-27T10:53:38.371Z,1013.31
2023-03-27T10:54:38.427Z,1013.37
2023-03-27T10:55:38.264Z,1013.34
2023-03-27T10:56:38.267Z,1013.35
2023-03-27T10:57:38.258Z,1013.35
2023-03-27T10:58:38.224Z,1013.33
2023-03-27T10:59:41.759Z,1013.34
2023-03-27T11:00:38.148Z,1013.36
2023-03-27T11:01:38.198Z,1013.45
2023-03-27T11:02:38.157Z,1013.37
2023-03-27T11:03:38.050Z,1013.40
2023-03-27T11:04:38.026Z,1013.42
2023-03-27T11:05:38.009Z,1013.41
2023-03-27T11:06:37.970Z,1013.43
2023-03-27T11:07:37.968Z,1013.40
2023-03-27T11:08:37.912Z,1013.48
2023-03-27T11:09:37.881Z,1013.47
2023-03-27T11:10:37.864Z,1013.40
2023-03-27T11:11:37.846Z,1013.46
2023-03-27T11:12:37.815Z,1013.40
2023-03-27T11:13:37.781Z,1013.43
2023-03-27T11:14:37.785Z,1013.41
2023-03-27T11:15:37.719Z,1013.41
2023-03-27T11:16:37.745Z,1013.38
2023-03-27T11:17:37.708Z,1013.47
2023-03-27T11:18:37.642Z,1013.47
2023-03-27T11:19:37.624Z,1013.48
2023-03-27T11:20:37.583Z,1013.51
2023-03-27T11:21:37.564Z,1013.58
2023-03-27T11:22:37.530Z,1013.55
2023-03-27T11:23:37.502Z,1013.53
2023-03-27T11:24:37.485Z,1013.58
2023-03-27T11:25:37.448Z,1013.58
2023-03-27T11:26:37.431Z,1013.49
2023-03-27T11:27:37.399Z,1013.55
2023-03-27T11:28:37.372Z,1013.59
2023-03-27T11:29:37.357Z,1013.59
2023-03-27T11:30:37.428Z,1013.55
2023-03-27T11:31:37.318Z,1013.58
2023-03-27T11:32:37.300Z,1013.58
2023-03-27T11:33:37.239Z,1013.57
2023-03-27T11:34:37.217Z,1013.56
2023-03-27T11:35:37.192Z,1013.54
2023-03-27T11:36:37.164Z,1013.60
2023-03-27T11:37:37.128Z,1013.56
2023-03-27T11:38:37.109Z,1013.57
2023-03-27T11:39:37.086Z,1013.56
2023-03-27T11:40:37.066Z,1013.48
2023-03-27T11:41:37.046Z,1013.51
2023-03-27T11:42:37.003Z,1013.57
2023-03-27T11:43:36.977Z,1013.63
2023-03-27T11:44:36.951Z,1013.65
2023-03-27T11:45:36.924Z,1013.67
2023-03-27T11:46:36.947Z,1013.80
2023-03-27T11:47:36.919Z,1014.44
2023-03-27T11:48:36.847Z,1014.25
2023-03-27T11:49:36.821Z,1014.16
2023-03-27T11:50:36.803Z,1014.32
2023-03-27T11:51:36.772Z,1014.35
2023-03-27T11:52:36.741Z,1014.34
2023-03-27T11:53:36.707Z,1014.45
2023-03-27T11:54:36.682Z,1014.55
2023-03-27T11:55:36.650Z,1014.54
2023-03-27T11:56:36.660Z,1014.56
2023-03-27T11:57:36.598Z,1014.61
2023-03-27T11:58:36.574Z,1014.52
2023-03-27T11:59:36.548Z,1014.49
2023-03-27T12:00:36.522Z,1014.50
2023-03-27T12:01:36.594Z,1014.46
2023-03-27T12:02:36.559Z,1014.42
2023-03-27T12:03:36.560Z,1014.35
2023-03-27T12:04:36.418Z,1014.33
2023-03-27T12:05:36.374Z,1014.41